Tri-State/Milton J Ferguson Field (HTS)

 

Airport Diagram
Current Weather/Forecast (MVFR Conditions)
METAR KHTS 071251Z 30010G19KT 10SM BKN015 BKN024 10/07 A2997 RMK AO2 RAB23E34 SLP146 P0000 T01000067
TAF KHTS 071259Z 0713/0812 30009G16KT P6SM BKN015 FM071400 30008G16KT P6SM BKN030 FM071600 30009G15KT P6SM SCT050 FM080000 25005KT P6SM SCT090 FM080200 VRB03KT P6SM SHRA BKN050

Airport Information

All Charts
General
Chart Name View
AIRPORT DIAGRAM
TAKEOFF MINIMUMS
ALTERNATE MINIMUMS
RADAR MINIMUMS
HOT SPOT

Approaches
Chart Name Download
ILS OR LOC RWY 12
ILS OR LOC RWY 30
RNAV (GPS) RWY 12
RNAV (GPS) RWY 30


Airport Statistics
Departures Arrivals Local
All Collected Stats since June 2016: 102 106 2
2021 Stats: 10 17 0
May Stats: 1 2 0

Inbound Traffic (Arrivals) - 0

No inbound traffic.


Outbound Traffic (Departures) - 0

No outbound traffic.


Local Traffic (Pattern) - 0

No local traffic.